Time;durP1;ratioP1;P1;durP2;ratioP2;P2;SDS_P1;SDS_P2;PMS_P1;PMS_P2;Temp;Humidity;BMP_temperature;BMP_pressure;BME280_temperature;BME280_humidity;BME280_pressure;Samples;Min_cycle;Max_cycle;Signal;HPM_P1;HPM_P2
2021/11/03 00:00:33;;;;;;;6.20;2.40;;;;;;;;;;5047615;28;20017;-83
2021/11/03 00:03:01;;;;;;;4.10;2.50;;;;;;;;;;5048968;28;20541;-83
2021/11/03 00:05:28;;;;;;;4.18;2.40;;;;;;;;;;5048576;28;20025;-83
2021/11/03 00:07:55;;;;;;;5.53;2.70;;;;;;;;;;5048790;28;20493;-82
2021/11/03 00:10:21;;;;;;;4.18;2.28;;;;;;;;;;5048756;28;20036;-82
2021/11/03 00:12:47;;;;;;;4.30;2.75;;;;;;;;;;5048859;28;20104;-84
2021/11/03 00:15:13;;;;;;;5.82;2.78;;;;;;;;;;5049221;28;20025;-83
2021/11/03 00:17:39;;;;;;;4.45;2.88;;;;;;;;;;5047206;28;20028;-83
2021/11/03 00:20:09;;;;;;;4.75;2.33;;;;;;;;;;5048299;28;20065;-83
2021/11/03 00:22:35;;;;;;;4.40;2.30;;;;;;;;;;5048270;28;20028;-84
2021/11/03 00:25:01;;;;;;;5.65;2.60;;;;;;;;;;5048589;28;20036;-83
2021/11/03 00:27:27;;;;;;;4.90;2.72;;;;;;;;;;5046871;28;20057;-83
2021/11/03 00:29:53;;;;;;;3.47;2.20;;;;;;;;;;5048681;28;20029;-81
2021/11/03 00:32:19;;;;;;;5.82;2.17;;;;;;;;;;5047093;28;20021;-83
2021/11/03 00:34:46;;;;;;;3.65;1.98;;;;;;;;;;5048791;28;20036;-85
2021/11/03 00:37:14;;;;;;;4.03;2.30;;;;;;;;;;5048820;28;20017;-84
2021/11/03 00:39:40;;;;;;;4.65;2.30;;;;;;;;;;5046935;28;20025;-84
2021/11/03 00:42:06;;;;;;;3.30;2.05;;;;;;;;;;5048513;28;20549;-83
2021/11/03 00:44:32;;;;;;;4.45;2.30;;;;;;;;;;5046581;28;20457;-85
2021/11/03 00:46:58;;;;;;;4.60;2.33;;;;;;;;;;5046718;28;20040;-85
2021/11/03 00:49:24;;;;;;;3.95;2.33;;;;;;;;;;5047899;28;20080;-83
2021/11/03 00:51:50;;;;;;;4.13;2.13;;;;;;;;;;5048301;28;20021;-84
2021/11/03 00:54:16;;;;;;;4.10;2.22;;;;;;;;;;5046585;28;20033;-84
2021/11/03 00:56:42;;;;;;;3.50;2.15;;;;;;;;;;5048433;28;20044;-84
2021/11/03 00:59:08;;;;;;;4.47;2.45;;;;;;;;;;5046711;28;20172;-84
2021/11/03 01:01:35;;;;;;;4.47;2.38;;;;;;;;;;5046424;28;20080;-81
2021/11/03 01:04:01;;;;;;;2.42;1.73;;;;;;;;;;5047403;28;20052;-81
2021/11/03 01:06:27;;;;;;;3.97;1.92;;;;;;;;;;5046623;28;20025;-82
2021/11/03 01:08:53;;;;;;;4.13;2.28;;;;;;;;;;5046542;28;20029;-82
2021/11/03 01:11:19;;;;;;;3.30;2.00;;;;;;;;;;5047913;28;20029;-81
2021/11/03 01:13:46;;;;;;;4.55;2.45;;;;;;;;;;5048259;28;20052;-82
2021/11/03 01:16:12;;;;;;;3.58;2.20;;;;;;;;;;5048310;28;20032;-81
2021/11/03 01:18:38;;;;;;;4.32;2.30;;;;;;;;;;5047592;28;20495;-86
2021/11/03 01:21:04;;;;;;;5.13;2.60;;;;;;;;;;5047972;28;20096;-85
2021/11/03 01:23:30;;;;;;;3.83;2.42;;;;;;;;;;5047615;28;20025;-84
2021/11/03 01:25:56;;;;;;;3.45;1.95;;;;;;;;;;5047636;28;20021;-84
2021/11/03 01:28:22;;;;;;;4.85;2.40;;;;;;;;;;5047321;28;20033;-83
2021/11/03 01:30:49;;;;;;;3.72;1.85;;;;;;;;;;5047583;28;20028;-87
2021/11/03 01:33:16;;;;;;;3.58;2.33;;;;;;;;;;5048042;28;20082;-82
2021/11/03 01:35:42;;;;;;;5.25;2.45;;;;;;;;;;5047959;28;20484;-82
2021/11/03 01:38:09;;;;;;;3.92;2.10;;;;;;;;;;5047760;28;20040;-81
2021/11/03 01:40:37;;;;;;;5.03;2.00;;;;;;;;;;5045933;28;20033;-84
2021/11/03 01:43:03;;;;;;;4.05;2.13;;;;;;;;;;5047495;28;20025;-84
2021/11/03 01:45:29;;;;;;;3.15;2.15;;;;;;;;;;5047108;28;20228;-83
2021/11/03 01:47:57;;;;;;;3.60;2.40;;;;;;;;;;5046233;28;20026;-81
2021/11/03 01:50:23;;;;;;;3.03;1.92;;;;;;;;;;5047427;28;20025;-83
2021/11/03 01:52:52;;;;;;;3.80;1.98;;;;;;;;;;5047562;28;20032;-83
2021/11/03 01:55:18;;;;;;;4.93;2.42;;;;;;;;;;5047135;28;20473;-83
2021/11/03 01:57:46;;;;;;;3.20;2.00;;;;;;;;;;5047629;28;20025;-81
2021/11/03 02:00:15;;;;;;;3.90;1.95;;;;;;;;;;5046431;28;20082;-83
2021/11/03 02:02:42;;;;;;;2.67;2.08;;;;;;;;;;5047625;28;20031;-84
2021/11/03 02:05:10;;;;;;;3.67;1.98;;;;;;;;;;5047413;28;20110;-84
2021/11/03 02:07:36;;;;;;;3.63;1.88;;;;;;;;;;5047010;28;20406;-83
2021/11/03 02:10:03;;;;;;;3.65;2.22;;;;;;;;;;5047138;28;20060;-83
2021/11/03 02:12:30;;;;;;;4.10;2.22;;;;;;;;;;5047086;28;20029;-83
2021/11/03 02:14:56;;;;;;;3.33;1.88;;;;;;;;;;5047284;28;20037;-84
2021/11/03 02:17:23;;;;;;;3.33;1.92;;;;;;;;;;5050239;28;20100;-84
2021/11/03 02:19:50;;;;;;;3.88;1.92;;;;;;;;;;5050627;28;20029;-84
2021/11/03 02:22:16;;;;;;;3.28;2.00;;;;;;;;;;5048867;28;20089;-82
2021/11/03 02:24:54;;;;;;;4.20;2.33;;;;;;;;;;5050653;28;20418;-84
2021/11/03 02:27:22;;;;;;;4.30;2.08;;;;;;;;;;5048923;28;20031;-84
2021/11/03 02:29:48;;;;;;;4.53;1.90;;;;;;;;;;5050413;28;20037;-83
2021/11/03 02:32:19;;;;;;;2.72;1.85;;;;;;;;;;5050653;28;20029;-82
2021/11/03 02:34:46;;;;;;;3.95;2.15;;;;;;;;;;5050690;28;20021;-84
2021/11/03 02:37:27;;;;;;;4.15;2.03;;;;;;;;;;5049136;28;20049;-84
2021/11/03 02:40:14;;;;;;;3.00;2.00;;;;;;;;;;5050227;28;20056;-83
2021/11/03 02:42:42;;;;;;;4.97;1.70;;;;;;;;;;5060528;28;20045;-83
2021/11/03 02:45:10;;;;;;;4.20;2.20;;;;;;;;;;5048781;28;20431;-83
2021/11/03 02:47:36;;;;;;;4.38;2.15;;;;;;;;;;5049687;28;20545;-82
2021/11/03 02:50:07;;;;;;;4.75;2.00;;;;;;;;;;5050151;28;20025;-82
2021/11/03 02:52:33;;;;;;;3.55;1.98;;;;;;;;;;5050076;28;20048;-82
2021/11/03 02:54:59;;;;;;;3.30;2.05;;;;;;;;;;5050109;28;20080;-81
2021/11/03 02:57:25;;;;;;;3.28;1.75;;;;;;;;;;5049888;28;20064;-83
2021/11/03 02:59:51;;;;;;;3.40;1.77;;;;;;;;;;5050071;28;20029;-79
2021/11/03 03:02:17;;;;;;;2.90;1.60;;;;;;;;;;5049571;28;20013;-81
2021/11/03 03:04:45;;;;;;;3.28;1.58;;;;;;;;;;5049850;28;20377;-81
2021/11/03 03:07:12;;;;;;;5.50;1.70;;;;;;;;;;5050256;28;20096;-83
2021/11/03 03:09:38;;;;;;;2.55;1.80;;;;;;;;;;5049416;28;20041;-81
2021/11/03 03:12:06;;;;;;;2.63;1.60;;;;;;;;;;5049783;28;20021;-83
2021/11/03 03:14:36;;;;;;;3.67;1.67;;;;;;;;;;5049539;28;20089;-83
2021/11/03 03:17:02;;;;;;;3.65;1.70;;;;;;;;;;5049742;28;20021;-81
2021/11/03 03:19:28;;;;;;;3.03;1.45;;;;;;;;;;5049393;28;20029;-81
2021/11/03 03:21:54;;;;;;;3.20;1.65;;;;;;;;;;5049584;28;20592;-82
2021/11/03 03:24:20;;;;;;;3.53;1.77;;;;;;;;;;5049331;28;20027;-82
2021/11/03 03:26:47;;;;;;;3.40;1.73;;;;;;;;;;5048847;28;20116;-83
2021/11/03 03:29:13;;;;;;;5.65;2.15;;;;;;;;;;5048358;28;20041;-80
2021/11/03 03:31:39;;;;;;;4.53;1.90;;;;;;;;;;5049227;28;20021;-80
2021/11/03 03:34:11;;;;;;;2.50;1.67;;;;;;;;;;5048274;28;20029;-79
2021/11/03 03:36:37;;;;;;;4.07;1.92;;;;;;;;;;5049272;28;20022;-82
2021/11/03 03:39:05;;;;;;;2.20;1.40;;;;;;;;;;5049281;28;20033;-84
2021/11/03 03:41:31;;;;;;;2.58;1.83;;;;;;;;;;5049182;28;20021;-84
2021/11/03 03:43:57;;;;;;;3.38;1.88;;;;;;;;;;5047975;28;20485;-83
2021/11/03 03:46:23;;;;;;;2.80;1.50;;;;;;;;;;5048611;28;20401;-84
2021/11/03 03:48:50;;;;;;;2.63;1.60;;;;;;;;;;5049015;28;20037;-82
2021/11/03 03:51:16;;;;;;;2.92;1.80;;;;;;;;;;5049319;28;20048;-84
2021/11/03 03:53:42;;;;;;;3.08;1.95;;;;;;;;;;5049527;28;20025;-83
2021/11/03 03:56:08;;;;;;;3.45;1.85;;;;;;;;;;5049073;28;20435;-82
2021/11/03 03:58:36;;;;;;;2.92;1.92;;;;;;;;;;5048922;28;20025;-82
2021/11/03 04:01:02;;;;;;;3.22;1.65;;;;;;;;;;5049081;28;20487;-84
2021/11/03 04:03:28;;;;;;;3.33;1.42;;;;;;;;;;5047110;28;20025;-84
2021/11/03 04:05:55;;;;;;;2.97;1.63;;;;;;;;;;5049075;28;20021;-82
2021/11/03 04:08:24;;;;;;;4.45;1.60;;;;;;;;;;5048673;28;20036;-83
2021/11/03 04:10:50;;;;;;;1.90;1.27;;;;;;;;;;5048896;28;20504;-83
2021/11/03 04:13:16;;;;;;;4.53;1.80;;;;;;;;;;5048566;28;20492;-81
2021/11/03 04:15:42;;;;;;;2.85;1.73;;;;;;;;;;5049218;28;20032;-84
2021/11/03 04:18:08;;;;;;;4.13;1.75;;;;;;;;;;5048809;28;20028;-85
2021/11/03 04:20:34;;;;;;;2.28;1.50;;;;;;;;;;5048783;28;20025;-85
2021/11/03 04:23:01;;;;;;;3.35;1.88;;;;;;;;;;5048779;28;20101;-84
2021/11/03 04:25:26;;;;;;;1.83;1.17;;;;;;;;;;5047281;28;20021;-85
2021/11/03 04:27:53;;;;;;;2.85;1.70;;;;;;;;;;5048439;28;20029;-84
2021/11/03 04:30:20;;;;;;;1.95;1.20;;;;;;;;;;5048318;28;20397;-85
2021/11/03 04:32:46;;;;;;;2.30;1.40;;;;;;;;;;5048639;28;20499;-83
2021/11/03 04:35:13;;;;;;;3.53;2.03;;;;;;;;;;5048521;28;20059;-84
2021/11/03 04:37:39;;;;;;;1.92;1.33;;;;;;;;;;5046630;28;20076;-83
2021/11/03 04:40:07;;;;;;;2.83;1.60;;;;;;;;;;5046132;28;20062;-84
2021/11/03 04:42:33;;;;;;;2.72;1.60;;;;;;;;;;5048371;28;20021;-83
2021/11/03 04:44:59;;;;;;;2.55;1.38;;;;;;;;;;5048169;28;20033;-81
2021/11/03 04:47:25;;;;;;;2.40;1.48;;;;;;;;;;5048038;28;20039;-83
2021/11/03 04:49:52;;;;;;;2.50;1.38;;;;;;;;;;5048300;28;20033;-83
2021/11/03 04:52:18;;;;;;;2.22;1.27;;;;;;;;;;5047846;28;20095;-83
2021/11/03 04:54:44;;;;;;;2.47;1.25;;;;;;;;;;5048286;28;20104;-82
2021/11/03 04:57:15;;;;;;;2.28;1.50;;;;;;;;;;5047801;28;20021;-83
2021/11/03 04:59:41;;;;;;;3.22;1.33;;;;;;;;;;5048202;28;20025;-82
2021/11/03 05:02:07;;;;;;;3.90;1.80;;;;;;;;;;5047781;28;20032;-81
2021/11/03 05:04:33;;;;;;;3.13;1.80;;;;;;;;;;5048168;28;20022;-83
2021/11/03 05:06:59;;;;;;;2.70;1.52;;;;;;;;;;5046786;28;20036;-82
2021/11/03 05:09:25;;;;;;;2.15;1.45;;;;;;;;;;5047758;28;20050;-84
2021/11/03 05:11:51;;;;;;;2.25;1.40;;;;;;;;;;5047880;28;20029;-82
2021/11/03 05:14:17;;;;;;;2.30;1.60;;;;;;;;;;5047873;28;20036;-81
2021/11/03 05:16:43;;;;;;;3.53;1.80;;;;;;;;;;5048058;28;20024;-82
2021/11/03 05:19:10;;;;;;;3.05;1.73;;;;;;;;;;5047499;28;20077;-81
2021/11/03 05:21:36;;;;;;;2.63;1.45;;;;;;;;;;5047669;28;20025;-82
2021/11/03 05:24:03;;;;;;;2.47;1.30;;;;;;;;;;5046403;28;20033;-83
2021/11/03 05:26:29;;;;;;;2.42;1.50;;;;;;;;;;5047443;28;20021;-81
2021/11/03 05:28:56;;;;;;;1.77;1.40;;;;;;;;;;5047539;28;20397;-82
2021/11/03 05:31:23;;;;;;;3.72;1.58;;;;;;;;;;5047359;28;20078;-80
2021/11/03 05:33:49;;;;;;;2.50;1.40;;;;;;;;;;5047854;28;20401;-83
2021/11/03 05:36:20;;;;;;;1.90;1.30;;;;;;;;;;5047550;28;20096;-80
2021/11/03 05:38:46;;;;;;;4.43;1.48;;;;;;;;;;5047754;28;20428;-81
2021/11/03 05:41:12;;;;;;;1.80;1.30;;;;;;;;;;5047468;28;20047;-79
2021/11/03 05:43:38;;;;;;;2.83;1.45;;;;;;;;;;5047666;28;20025;-84
2021/11/03 05:46:04;;;;;;;3.60;1.50;;;;;;;;;;5047398;28;20497;-83
2021/11/03 05:48:31;;;;;;;2.78;1.50;;;;;;;;;;5047310;28;20071;-80
2021/11/03 05:50:58;;;;;;;2.53;1.55;;;;;;;;;;5048678;28;20392;-81
2021/11/03 05:53:24;;;;;;;2.20;1.50;;;;;;;;;;5049065;28;20037;-81
2021/11/03 05:55:50;;;;;;;3.13;2.15;;;;;;;;;;5050987;28;20028;-84
2021/11/03 05:58:16;;;;;;;2.13;1.42;;;;;;;;;;5051054;28;20097;-83
2021/11/03 06:00:42;;;;;;;2.03;1.20;;;;;;;;;;5050980;28;20029;-83
2021/11/03 06:03:08;;;;;;;2.42;1.50;;;;;;;;;;5050543;28;20033;-83
2021/11/03 06:05:34;;;;;;;2.38;1.65;;;;;;;;;;5050585;28;20017;-83
2021/11/03 06:08:02;;;;;;;2.30;1.60;;;;;;;;;;5050502;28;20473;-83
2021/11/03 06:10:30;;;;;;;3.83;1.60;;;;;;;;;;5050514;28;20047;-83
2021/11/03 06:12:56;;;;;;;2.45;1.50;;;;;;;;;;5049994;28;20135;-82
2021/11/03 06:15:23;;;;;;;3.53;1.25;;;;;;;;;;5050413;28;20021;-83
2021/11/03 06:17:50;;;;;;;2.97;1.73;;;;;;;;;;5049557;28;20025;-83
2021/11/03 06:20:16;;;;;;;2.70;1.60;;;;;;;;;;5049314;28;20511;-83
2021/11/03 06:22:42;;;;;;;2.80;1.60;;;;;;;;;;5050210;28;20033;-82
2021/11/03 06:25:09;;;;;;;2.58;1.67;;;;;;;;;;5050088;28;20017;-83
2021/11/03 06:27:36;;;;;;;2.72;1.58;;;;;;;;;;5050248;28;20089;-83
2021/11/03 06:30:03;;;;;;;2.65;1.27;;;;;;;;;;5048923;28;20489;-83
2021/11/03 06:32:29;;;;;;;3.72;1.83;;;;;;;;;;5049795;28;20028;-83
2021/11/03 06:34:55;;;;;;;2.08;1.20;;;;;;;;;;5050053;28;20025;-82
2021/11/03 06:37:21;;;;;;;2.28;1.73;;;;;;;;;;5049998;28;20025;-83
2021/11/03 06:39:47;;;;;;;2.63;1.58;;;;;;;;;;5050566;28;20060;-84
2021/11/03 06:42:13;;;;;;;3.35;1.85;;;;;;;;;;5048693;28;20033;-82
2021/11/03 06:44:39;;;;;;;3.25;1.80;;;;;;;;;;5049958;28;20021;-83
2021/11/03 06:47:05;;;;;;;3.05;1.65;;;;;;;;;;5049725;28;20068;-83
2021/11/03 06:49:31;;;;;;;2.50;1.48;;;;;;;;;;5049923;28;20029;-83
2021/11/03 06:51:57;;;;;;;3.42;1.48;;;;;;;;;;5050092;28;20036;-83
2021/11/03 06:54:24;;;;;;;2.33;1.50;;;;;;;;;;5049680;28;20064;-83
2021/11/03 06:56:50;;;;;;;2.70;1.58;;;;;;;;;;5050387;28;20055;-83
2021/11/03 06:59:16;;;;;;;2.58;1.50;;;;;;;;;;5049455;28;20516;-81
2021/11/03 07:01:42;;;;;;;3.00;2.03;;;;;;;;;;5049018;28;20322;-82
2021/11/03 07:04:08;;;;;;;2.30;1.33;;;;;;;;;;5049238;28;20124;-82
2021/11/03 07:06:34;;;;;;;3.42;1.70;;;;;;;;;;5049927;28;20029;-82
2021/11/03 07:09:00;;;;;;;2.60;1.60;;;;;;;;;;5049625;28;20082;-83
2021/11/03 07:11:28;;;;;;;3.08;1.48;;;;;;;;;;5047991;28;20132;-80
2021/11/03 07:13:55;;;;;;;2.60;1.27;;;;;;;;;;5048413;28;20408;-80
2021/11/03 07:16:21;;;;;;;2.75;1.30;;;;;;;;;;5049754;28;20033;-80
2021/11/03 07:18:47;;;;;;;2.05;1.60;;;;;;;;;;5049548;28;20021;-80
2021/11/03 07:21:13;;;;;;;2.35;1.30;;;;;;;;;;5049317;28;20434;-79
2021/11/03 07:23:39;;;;;;;2.55;1.45;;;;;;;;;;5049449;28;20032;-79
2021/11/03 07:26:05;;;;;;;2.92;1.60;;;;;;;;;;5049291;28;20017;-82
2021/11/03 07:28:31;;;;;;;2.55;1.63;;;;;;;;;;5049411;28;20041;-80
2021/11/03 07:30:58;;;;;;;2.45;1.42;;;;;;;;;;5049239;28;20073;-78
2021/11/03 07:33:24;;;;;;;4.13;1.75;;;;;;;;;;5049162;28;20025;-82
2021/11/03 07:35:51;;;;;;;3.20;1.90;;;;;;;;;;5049694;28;20017;-81
2021/11/03 07:38:17;;;;;;;4.30;1.70;;;;;;;;;;5049068;28;20031;-81
2021/11/03 07:40:46;;;;;;;2.80;1.65;;;;;;;;;;5049388;28;20384;-80
2021/11/03 07:43:13;;;;;;;2.67;1.48;;;;;;;;;;5048839;28;20013;-82
2021/11/03 07:45:39;;;;;;;4.45;1.67;;;;;;;;;;5047828;28;20560;-79
2021/11/03 07:48:06;;;;;;;3.40;1.83;;;;;;;;;;5048657;28;20077;-80
2021/11/03 07:50:36;;;;;;;2.63;1.77;;;;;;;;;;5049138;28;20029;-82
2021/11/03 07:53:02;;;;;;;1.95;1.45;;;;;;;;;;5049286;28;20442;-79
2021/11/03 07:55:29;;;;;;;4.28;1.80;;;;;;;;;;5048719;28;20082;-82
2021/11/03 07:57:55;;;;;;;3.55;1.75;;;;;;;;;;5049338;28;20057;-81
2021/11/03 08:00:23;;;;;;;3.08;1.35;;;;;;;;;;5049020;28;20033;-82
2021/11/03 08:02:49;;;;;;;2.92;1.90;;;;;;;;;;5048964;28;20499;-82
2021/11/03 08:05:15;;;;;;;4.03;1.90;;;;;;;;;;5048592;28;20029;-82
2021/11/03 08:07:41;;;;;;;2.95;1.85;;;;;;;;;;5048955;28;20473;-83
2021/11/03 08:10:13;;;;;;;3.50;2.10;;;;;;;;;;5047217;28;20560;-79
2021/11/03 08:12:39;;;;;;;4.55;1.67;;;;;;;;;;5048819;28;20073;-79
2021/11/03 08:15:05;;;;;;;3.25;1.88;;;;;;;;;;5048248;28;20104;-82
2021/11/03 08:17:32;;;;;;;3.33;2.13;;;;;;;;;;5048801;28;20025;-82
2021/11/03 08:19:59;;;;;;;5.50;2.50;;;;;;;;;;5048766;28;20033;-81
2021/11/03 08:22:26;;;;;;;4.25;2.20;;;;;;;;;;5048598;28;20036;-84
2021/11/03 08:24:55;;;;;;;6.05;2.35;;;;;;;;;;5048679;28;20515;-82
2021/11/03 08:27:22;;;;;;;4.97;2.25;;;;;;;;;;5048364;28;20025;-81
2021/11/03 08:29:48;;;;;;;3.17;2.03;;;;;;;;;;5048511;28;20036;-81
2021/11/03 08:32:18;;;;;;;3.13;2.42;;;;;;;;;;5048204;28;20100;-82
2021/11/03 08:34:44;;;;;;;3.95;2.25;;;;;;;;;;5048393;28;20036;-80
2021/11/03 08:37:18;;;;;;;4.38;2.55;;;;;;;;;;5048183;28;20021;-81
2021/11/03 08:39:47;;;;;;;3.65;1.73;;;;;;;;;;5048533;28;20417;-80
2021/11/03 08:42:13;;;;;;;5.20;2.50;;;;;;;;;;5047804;28;20017;-80
2021/11/03 08:44:40;;;;;;;3.75;2.13;;;;;;;;;;5048417;28;20450;-82
2021/11/03 08:47:07;;;;;;;4.93;2.50;;;;;;;;;;5047985;28;20116;-82
2021/11/03 08:49:33;;;;;;;5.35;2.58;;;;;;;;;;5046854;28;20081;-80
2021/11/03 08:52:00;;;;;;;4.18;2.10;;;;;;;;;;5048383;28;20021;-81
2021/11/03 08:54:26;;;;;;;5.00;3.08;;;;;;;;;;5048247;28;20029;-80
2021/11/03 08:56:52;;;;;;;4.35;2.80;;;;;;;;;;5047788;28;20036;-81
2021/11/03 08:59:18;;;;;;;5.10;2.88;;;;;;;;;;5047847;28;20524;-80
2021/11/03 09:01:45;;;;;;;6.90;4.07;;;;;;;;;;5047517;28;20032;-78
2021/11/03 09:04:11;;;;;;;5.68;2.40;;;;;;;;;;5046614;28;20033;-80
2021/11/03 09:06:38;;;;;;;4.82;2.42;;;;;;;;;;5081376;28;20501;-80
2021/11/03 09:09:05;;;;;;;4.85;2.28;;;;;;;;;;5132105;28;20088;-83
2021/11/03 09:11:32;;;;;;;4.55;2.38;;;;;;;;;;5062684;28;20048;-81
2021/11/03 09:13:58;;;;;;;4.70;3.03;;;;;;;;;;5028513;28;20050;-81
2021/11/03 09:16:24;;;;;;;5.22;2.88;;;;;;;;;;5027891;28;20029;-82
2021/11/03 09:18:51;;;;;;;3.80;2.90;;;;;;;;;;5027992;28;20078;-84
2021/11/03 09:21:17;;;;;;;5.22;2.75;;;;;;;;;;5034708;28;20054;-84
2021/11/03 09:23:43;;;;;;;5.93;2.67;;;;;;;;;;5047470;28;20053;-84
2021/11/03 09:26:10;;;;;;;3.45;2.63;;;;;;;;;;5047292;28;20018;-83
2021/11/03 09:28:36;;;;;;;4.88;2.45;;;;;;;;;;5031565;28;20085;-82
2021/11/03 09:31:05;;;;;;;6.05;2.92;;;;;;;;;;5033554;28;20043;-84
2021/11/03 09:33:33;;;;;;;4.80;2.75;;;;;;;;;;5049821;28;20116;-81
2021/11/03 09:36:00;;;;;;;4.43;2.67;;;;;;;;;;5047761;28;20075;-79
2021/11/03 09:38:27;;;;;;;4.03;2.70;;;;;;;;;;5038622;28;20405;-82
2021/11/03 09:40:56;;;;;;;4.70;2.83;;;;;;;;;;5038665;28;20031;-81
2021/11/03 09:43:27;;;;;;;4.60;2.60;;;;;;;;;;5035622;28;20017;-80
2021/11/03 09:45:53;;;;;;;4.47;2.55;;;;;;;;;;5033266;28;20068;-81
2021/11/03 09:48:29;;;;;;;3.90;2.53;;;;;;;;;;5041282;27;20498;-81
2021/11/03 09:50:56;;;;;;;5.20;3.42;;;;;;;;;;5044596;28;20040;-80
2021/11/03 09:53:29;;;;;;;5.22;2.97;;;;;;;;;;5038532;28;20404;-80
2021/11/03 09:55:55;;;;;;;15.23;3.60;;;;;;;;;;5038138;28;20026;-79
2021/11/03 09:58:31;;;;;;;9.70;5.20;;;;;;;;;;5038321;28;20492;-80
2021/11/03 10:01:05;;;;;;;8.75;5.70;;;;;;;;;;5039796;28;20018;-80
2021/11/03 10:03:50;;;;;;;13.75;6.30;;;;;;;;;;5040269;27;20029;-79
2021/11/03 10:06:19;;;;;;;13.23;5.88;;;;;;;;;;5038144;28;20485;-78
2021/11/03 10:08:46;;;;;;;12.43;6.25;;;;;;;;;;5038344;28;20041;-77
2021/11/03 10:11:24;;;;;;;12.43;5.78;;;;;;;;;;5032562;28;20108;-78
2021/11/03 10:13:51;;;;;;;9.63;5.90;;;;;;;;;;5045599;28;20036;-79
2021/11/03 10:16:17;;;;;;;12.60;6.00;;;;;;;;;;5044731;28;20393;-78
2021/11/03 10:18:52;;;;;;;9.77;5.78;;;;;;;;;;5039769;28;20024;-78
2021/11/03 10:21:30;;;;;;;11.55;5.20;;;;;;;;;;5045238;28;20036;-79
2021/11/03 10:23:59;;;;;;;9.38;6.07;;;;;;;;;;5039605;28;20029;-79
2021/11/03 10:26:27;;;;;;;13.05;7.50;;;;;;;;;;5038462;28;20032;-80
2021/11/03 10:29:14;;;;;;;12.75;9.40;;;;;;;;;;5038258;28;20119;-79
2021/11/03 10:31:53;;;;;;;16.55;9.23;;;;;;;;;;5056331;28;20048;-78
2021/11/03 10:34:19;;;;;;;11.88;7.60;;;;;;;;;;5047361;28;20116;-79
2021/11/03 10:36:47;;;;;;;12.32;8.45;;;;;;;;;;5047815;28;20034;-81
2021/11/03 10:39:16;;;;;;;11.02;7.75;;;;;;;;;;5034786;28;20060;-80
2021/11/03 10:41:42;;;;;;;12.65;7.00;;;;;;;;;;5046285;28;20100;-79
2021/11/03 10:44:22;;;;;;;10.07;7.25;;;;;;;;;;5035544;28;20021;-78
2021/11/03 10:46:54;;;;;;;10.52;6.63;;;;;;;;;;5041168;28;20025;-79
2021/11/03 10:49:23;;;;;;;10.10;6.60;;;;;;;;;;5044424;28;20124;-80
2021/11/03 10:51:57;;;;;;;12.93;6.57;;;;;;;;;;5040118;28;20036;-80
2021/11/03 10:54:23;;;;;;;14.30;6.22;;;;;;;;;;5037265;28;20397;-81
2021/11/03 10:56:57;;;;;;;12.40;6.35;;;;;;;;;;5041129;28;20119;-81
2021/11/03 10:59:25;;;;;;;9.75;5.63;;;;;;;;;;5032865;28;20021;-81
2021/11/03 11:01:51;;;;;;;8.48;5.05;;;;;;;;;;5037129;28;20055;-81
2021/11/03 11:04:32;;;;;;;11.38;5.57;;;;;;;;;;5041907;28;20028;-81
2021/11/03 11:07:14;;;;;;;9.68;5.05;;;;;;;;;;5042466;28;20095;-80
2021/11/03 11:09:43;;;;;;;9.63;5.45;;;;;;;;;;5045662;28;20116;-80
2021/11/03 11:12:12;;;;;;;7.93;5.13;;;;;;;;;;5033872;28;20049;-80
2021/11/03 11:14:38;;;;;;;10.88;4.38;;;;;;;;;;5036087;28;20504;-82
2021/11/03 11:17:18;;;;;;;9.32;4.47;;;;;;;;;;5040231;28;20050;-81
2021/11/03 11:19:52;;;;;;;7.43;4.70;;;;;;;;;;5041068;28;20018;-81
2021/11/03 11:22:35;;;;;;;11.15;4.35;;;;;;;;;;5047575;28;20029;-79
2021/11/03 11:25:04;;;;;;;8.60;4.22;;;;;;;;;;5045152;27;20021;-81
2021/11/03 11:27:34;;;;;;;10.30;4.38;;;;;;;;;;5046475;28;20025;-79
2021/11/03 11:30:03;;;;;;;6.47;4.05;;;;;;;;;;5039934;28;20033;-77
2021/11/03 11:32:40;;;;;;;5.50;4.22;;;;;;;;;;5037048;28;20029;-77
2021/11/03 11:35:20;;;;;;;7.63;3.95;;;;;;;;;;5032656;27;20037;-79
2021/11/03 11:37:46;;;;;;;10.40;4.30;;;;;;;;;;5046882;28;20029;-80
2021/11/03 11:40:18;;;;;;;8.50;3.40;;;;;;;;;;5047146;28;20151;-79
2021/11/03 11:42:48;;;;;;;8.07;3.50;;;;;;;;;;5047435;28;20135;-82
2021/11/03 11:45:20;;;;;;;7.93;3.60;;;;;;;;;;5048370;28;20044;-79
2021/11/03 11:48:00;;;;;;;6.78;3.47;;;;;;;;;;5048452;28;20404;-79
2021/11/03 11:50:32;;;;;;;10.38;3.63;;;;;;;;;;5049021;28;20047;-80
2021/11/03 11:52:59;;;;;;;5.70;3.30;;;;;;;;;;5048187;28;20089;-79
2021/11/03 11:55:25;;;;;;;6.32;2.97;;;;;;;;;;5048942;28;20025;-81
2021/11/03 11:57:57;;;;;;;7.70;2.83;;;;;;;;;;5048826;28;20025;-79
2021/11/03 12:00:25;;;;;;;5.70;3.05;;;;;;;;;;5048630;28;20029;-78
2021/11/03 12:02:51;;;;;;;6.43;3.22;;;;;;;;;;5049086;28;20086;-79
2021/11/03 12:05:41;;;;;;;6.15;2.75;;;;;;;;;;5048825;28;20084;-81
2021/11/03 12:08:10;;;;;;;5.13;2.53;;;;;;;;;;5048407;28;20039;-80
2021/11/03 12:10:38;;;;;;;5.15;2.85;;;;;;;;;;5048759;28;20033;-80
2021/11/03 12:13:04;;;;;;;5.80;2.70;;;;;;;;;;5048788;28;20029;-80
2021/11/03 12:15:44;;;;;;;4.05;2.55;;;;;;;;;;5049102;28;20029;-80
2021/11/03 12:18:21;;;;;;;4.75;2.35;;;;;;;;;;5048570;28;20036;-80
2021/11/03 12:21:03;;;;;;;6.30;2.78;;;;;;;;;;5047280;28;20025;-79
2021/11/03 12:23:41;;;;;;;5.95;2.58;;;;;;;;;;5048668;28;20036;-82
2021/11/03 12:26:25;;;;;;;5.55;2.20;;;;;;;;;;5048236;28;20037;-83
2021/11/03 12:29:10;;;;;;;5.13;2.07;;;;;;;;;;5047298;28;20089;-80
2021/11/03 12:31:42;;;;;;;4.55;2.22;;;;;;;;;;5047198;28;20033;-82
2021/11/03 12:34:09;;;;;;;3.42;2.40;;;;;;;;;;5048239;28;20025;-81
2021/11/03 12:36:52;;;;;;;3.65;2.08;;;;;;;;;;5047952;28;20045;-80
2021/11/03 12:39:30;;;;;;;3.47;2.05;;;;;;;;;;5045624;28;20032;-82
2021/11/03 12:42:19;;;;;;;3.88;2.05;;;;;;;;;;5047123;28;20036;-84
2021/11/03 12:44:57;;;;;;;2.97;1.95;;;;;;;;;;5047067;28;20029;-81
2021/11/03 12:47:25;;;;;;;3.88;1.85;;;;;;;;;;5047675;28;20898;-83
2021/11/03 12:50:09;;;;;;;4.13;2.00;;;;;;;;;;5046603;28;20033;-82
2021/11/03 12:52:39;;;;;;;4.85;1.85;;;;;;;;;;5048253;28;20021;-81
2021/11/03 12:55:05;;;;;;;4.10;1.70;;;;;;;;;;5048495;28;20381;-80
2021/11/03 12:57:31;;;;;;;3.17;1.73;;;;;;;;;;5048610;28;20021;-81
2021/11/03 12:59:58;;;;;;;3.13;1.70;;;;;;;;;;5046281;28;20059;-80
2021/11/03 13:02:25;;;;;;;4.18;1.63;;;;;;;;;;5047674;28;20051;-80
2021/11/03 13:05:02;;;;;;;3.67;2.00;;;;;;;;;;5048079;28;20060;-81
2021/11/03 13:07:37;;;;;;;3.90;1.40;;;;;;;;;;5047697;28;20027;-81
2021/11/03 13:10:10;;;;;;;2.70;1.75;;;;;;;;;;5046787;28;20401;-81
2021/11/03 13:12:37;;;;;;;2.67;1.63;;;;;;;;;;5047858;28;20112;-81
2021/11/03 13:15:19;;;;;;;3.63;1.50;;;;;;;;;;5048233;28;20073;-81
2021/11/03 13:17:53;;;;;;;3.97;1.63;;;;;;;;;;5048165;28;20385;-80
2021/11/03 13:20:25;;;;;;;3.97;1.70;;;;;;;;;;5046368;28;20085;-82
2021/11/03 13:22:51;;;;;;;3.05;1.98;;;;;;;;;;5047661;28;20021;-80
2021/11/03 13:25:19;;;;;;;3.30;1.40;;;;;;;;;;5047731;28;20029;-81
2021/11/03 13:27:45;;;;;;;3.22;1.60;;;;;;;;;;5047542;28;20048;-82
2021/11/03 13:30:41;;;;;;;3.92;1.30;;;;;;;;;;5047493;28;20482;-82
2021/11/03 13:33:25;;;;;;;2.25;1.50;;;;;;;;;;5051929;28;20556;-81
2021/11/03 13:36:18;;;;;;;4.57;1.58;;;;;;;;;;5047807;28;20021;-82
2021/11/03 13:38:52;;;;;;;4.15;1.38;;;;;;;;;;5047794;28;20025;-81
2021/11/03 13:41:27;;;;;;;2.10;1.30;;;;;;;;;;5045819;28;20069;-85
2021/11/03 13:44:31;;;;;;;3.25;1.60;;;;;;;;;;5047566;28;20433;-82
2021/11/03 13:47:01;;;;;;;3.05;1.10;;;;;;;;;;5068469;28;20464;-82
2021/11/03 13:49:30;;;;;;;2.15;1.30;;;;;;;;;;5068089;28;20044;-82
2021/11/03 13:52:01;;;;;;;2.42;1.40;;;;;;;;;;5057551;28;20037;-84
2021/11/03 13:54:32;;;;;;;3.13;1.27;;;;;;;;;;5046004;28;20496;-84
2021/11/03 13:57:02;;;;;;;3.90;1.27;;;22.10;54.30;;;;;;5047525;28;20520;-81
2021/11/03 13:59:32;;;;;;;2.45;1.30;;;22.20;54.80;;;;;;5047729;28;20384;-82
2021/11/03 14:02:29;;;;;;;1.88;0.95;;;22.10;54.80;;;;;;5047476;28;20093;-82
2021/11/03 14:04:55;;;;;;;3.47;1.30;;;21.90;55.10;;;;;;5047526;28;20409;-82
2021/11/03 14:07:26;;;;;;;2.95;0.98;;;21.80;55.40;;;;;;5047019;28;20025;-81
2021/11/03 14:09:54;;;;;;;2.90;1.17;;;21.60;55.60;;;;;;5047368;28;20043;-85
2021/11/03 14:12:20;;;;;;;2.35;1.00;;;21.50;55.80;;;;;;5050313;28;20065;-82
2021/11/03 14:14:48;;;;;;;2.42;1.23;;;21.40;56.00;;;;;;5050789;28;20060;-81
2021/11/03 14:17:34;;;;;;;2.35;1.50;;;21.30;56.30;;;;;;5050500;28;20029;-81
2021/11/03 14:20:20;;;;;;;2.40;1.15;;;21.20;56.40;;;;;;5050913;28;20021;-81
2021/11/03 14:22:46;;;;;;;2.45;1.20;;;21.10;56.70;;;;;;5050478;28;20037;-80
2021/11/03 14:25:20;;;;;;;3.17;1.45;;;21.00;56.80;;;;;;5050111;28;20069;-81
2021/11/03 14:27:47;;;;;;;3.17;1.10;;;21.00;57.00;;;;;;5049230;28;20029;-80
2021/11/03 14:30:14;;;;;;;2.35;1.15;;;20.90;57.20;;;;;;5050158;28;20493;-81
2021/11/03 14:32:40;;;;;;;2.17;1.08;;;20.80;57.30;;;;;;5050536;28;20076;-82
2021/11/03 14:35:27;;;;;;;2.10;1.17;;;20.70;57.40;;;;;;5050277;28;20477;-81
2021/11/03 14:37:55;;;;;;;3.53;1.25;;;20.70;57.50;;;;;;5050558;28;20017;-82
2021/11/03 14:40:23;;;;;;;2.80;1.40;;;20.60;57.70;;;;;;5050024;28;20062;-81
2021/11/03 14:42:50;;;;;;;2.17;1.02;;;20.60;57.80;;;;;;5050381;28;20055;-81
2021/11/03 14:45:16;;;;;;;2.38;1.00;;;20.50;57.80;;;;;;5050044;28;20108;-82